Terminal Aerodrome Forecast
Issued by NWS

Home | Current Version | Previous Version | Text Only | Print | Product List | Glossary On
Versions: 1 2 3 4 5 6 7 8 9 10 11 12 13 14 15 16 17 18 19 20 21 22 23 24 25 26 27 28 29 30
000
FTUS41 KBUF 181500 AAB
TAFJHW
TAF AMD
KJHW 181500Z 1815/1912 20006KT 2SM -DZ BR OVC002
     FM181900 21009KT 6SM -DZ OVC003
     FM182100 22010G17KT 3SM BR VCSH OVC003
     FM182300 23010G18KT 5SM -DZ OVC003
     FM190300 23010G18KT 6SM -DZ OVC012
      AMD LTD TO CLD VIS AND WIND=

USA.gov is the U.S. government's official web portal to all federal, state and local government web resources and services.